createdAt,value
2023-05-14T00:01:15.177Z,12.62
2023-05-14T00:03:41.728Z,12.61
2023-05-14T00:06:09.483Z,12.58
2023-05-14T00:08:35.998Z,12.55
2023-05-14T00:11:02.628Z,12.54
2023-05-14T00:13:29.246Z,12.50
2023-05-14T00:15:55.751Z,12.48
2023-05-14T00:18:22.222Z,12.48
2023-05-14T00:20:49.299Z,12.50
2023-05-14T00:23:15.777Z,12.57
2023-05-14T00:25:42.240Z,12.32
2023-05-14T00:28:08.737Z,12.42
2023-05-14T00:30:35.287Z,12.32
2023-05-14T00:33:01.867Z,12.44
2023-05-14T00:35:28.428Z,12.29
2023-05-14T00:37:55.082Z,12.38
2023-05-14T00:40:26.352Z,12.38
2023-05-14T00:42:53.310Z,12.22
2023-05-14T00:45:19.891Z,12.05
2023-05-14T00:47:46.520Z,11.97
2023-05-14T00:50:13.787Z,11.89
2023-05-14T00:52:40.670Z,11.79
2023-05-14T00:55:07.889Z,11.73
2023-05-14T00:57:36.024Z,11.64
2023-05-14T01:00:03.687Z,11.65
2023-05-14T01:02:30.221Z,11.56
2023-05-14T01:04:57.016Z,11.51
2023-05-14T01:07:54.440Z,11.53
2023-05-14T01:10:39.206Z,11.54
2023-05-14T01:13:12.786Z,11.57
2023-05-14T01:15:40.109Z,11.57
2023-05-14T01:18:09.911Z,11.64
2023-05-14T01:20:36.602Z,11.56
2023-05-14T01:23:03.500Z,11.52
2023-05-14T01:25:31.332Z,11.46
2023-05-14T01:28:02.788Z,11.37
2023-05-14T01:30:36.131Z,11.25
2023-05-14T01:33:12.121Z,11.33
2023-05-14T01:35:39.385Z,11.31
2023-05-14T01:38:08.002Z,11.31
2023-05-14T01:40:36.504Z,11.24
2023-05-14T01:43:04.549Z,11.23
2023-05-14T01:45:31.373Z,11.20
2023-05-14T01:47:58.042Z,11.18
2023-05-14T01:50:24.787Z,11.01
2023-05-14T01:52:53.428Z,10.99
2023-05-14T01:55:20.026Z,11.16
2023-05-14T01:57:46.458Z,11.13
2023-05-14T02:00:13.209Z,11.01
2023-05-14T02:02:39.739Z,10.90
2023-05-14T02:05:07.144Z,10.70
2023-05-14T02:07:33.715Z,10.73
2023-05-14T02:10:00.231Z,10.77
2023-05-14T02:12:26.837Z,10.70
2023-05-14T02:14:53.402Z,10.61
2023-05-14T02:17:19.907Z,10.44
2023-05-14T02:19:46.411Z,10.54
2023-05-14T02:22:13.321Z,10.65
2023-05-14T02:24:39.781Z,10.62
2023-05-14T02:27:06.353Z,10.54
2023-05-14T02:29:32.836Z,10.56
2023-05-14T02:31:59.321Z,10.49
2023-05-14T02:34:25.932Z,10.46
2023-05-14T02:36:52.445Z,10.33
2023-05-14T02:39:18.886Z,10.30
2023-05-14T02:41:45.425Z,10.15
2023-05-14T02:44:11.874Z,10.02
2023-05-14T02:46:38.409Z,10.06
2023-05-14T02:49:05.029Z,10.01
2023-05-14T02:51:31.575Z,9.91
2023-05-14T02:53:58.041Z,9.72
2023-05-14T02:56:24.742Z,9.68
2023-05-14T02:58:51.310Z,9.65
2023-05-14T03:01:18.841Z,9.60
2023-05-14T03:03:45.940Z,9.58
2023-05-14T03:06:12.730Z,9.60
2023-05-14T03:08:39.391Z,9.68
2023-05-14T03:11:06.884Z,9.66
2023-05-14T03:13:33.483Z,9.75
2023-05-14T03:16:00.006Z,9.89
2023-05-14T03:18:28.336Z,9.77
2023-05-14T03:20:54.966Z,9.77
2023-05-14T03:23:21.578Z,9.84
2023-05-14T03:25:48.139Z,9.93
2023-05-14T03:28:14.678Z,9.94
2023-05-14T03:30:41.329Z,9.94
2023-05-14T03:33:07.889Z,10.10
2023-05-14T03:35:34.456Z,10.24
2023-05-14T03:38:00.976Z,10.31
2023-05-14T03:40:27.485Z,10.27
2023-05-14T03:42:54.051Z,10.31
2023-05-14T03:45:20.898Z,10.38
2023-05-14T03:47:47.546Z,10.34
2023-05-14T03:50:14.152Z,10.41
2023-05-14T03:52:40.891Z,10.64
2023-05-14T03:55:07.643Z,10.56
2023-05-14T03:57:34.252Z,10.61
2023-05-14T04:00:00.790Z,10.56
2023-05-14T04:02:27.340Z,10.42
2023-05-14T04:04:53.887Z,10.39
2023-05-14T04:07:20.555Z,10.38
2023-05-14T04:09:47.022Z,10.37
2023-05-14T04:12:13.558Z,10.43
2023-05-14T04:14:40.196Z,10.55
2023-05-14T04:17:06.653Z,10.68
2023-05-14T04:19:33.179Z,10.78
2023-05-14T04:21:59.650Z,10.94
2023-05-14T04:24:26.141Z,11.02
2023-05-14T04:26:52.650Z,11.16
2023-05-14T04:29:19.155Z,11.22
2023-05-14T04:31:46.328Z,11.39
2023-05-14T04:34:12.914Z,11.60
2023-05-14T04:36:40.109Z,11.73
2023-05-14T04:39:06.668Z,11.86
2023-05-14T04:41:33.399Z,11.97
2023-05-14T04:44:01.950Z,12.02
2023-05-14T04:46:28.647Z,12.21
2023-05-14T04:48:56.418Z,12.36
2023-05-14T04:51:23.269Z,12.46
2023-05-14T04:53:49.765Z,12.63
2023-05-14T04:56:16.194Z,12.80
2023-05-14T04:58:42.677Z,12.81
2023-05-14T05:01:09.262Z,12.84
2023-05-14T05:03:35.827Z,12.87
2023-05-14T05:06:02.301Z,13.03
2023-05-14T05:08:29.267Z,13.15
2023-05-14T05:10:55.763Z,13.34
2023-05-14T05:13:22.224Z,13.38
2023-05-14T05:15:48.744Z,13.54
2023-05-14T05:18:15.295Z,13.75
2023-05-14T05:20:41.799Z,13.77
2023-05-14T05:23:08.351Z,14.04
2023-05-14T05:25:34.865Z,14.20
2023-05-14T05:28:01.374Z,14.45
2023-05-14T05:30:28.211Z,14.45
2023-05-14T05:32:57.019Z,14.58
2023-05-14T05:35:23.597Z,14.74
2023-05-14T05:37:50.173Z,15.09
2023-05-14T05:40:16.982Z,15.57
2023-05-14T05:42:43.580Z,15.99
2023-05-14T05:45:10.603Z,16.64
2023-05-14T05:47:37.176Z,17.35
2023-05-14T05:50:03.985Z,18.79
2023-05-14T05:52:30.641Z,20.06
2023-05-14T05:54:57.081Z,20.27
2023-05-14T05:57:25.654Z,20.97
2023-05-14T05:59:53.195Z,21.82
2023-05-14T06:02:19.893Z,22.79
2023-05-14T06:04:46.788Z,23.32
2023-05-14T06:07:13.451Z,23.77
2023-05-14T06:09:39.959Z,24.68
2023-05-14T06:12:06.733Z,24.69
2023-05-14T06:14:33.414Z,25.71
2023-05-14T06:17:00.192Z,26.18
2023-05-14T06:19:26.808Z,26.44
2023-05-14T06:21:53.468Z,27.00
2023-05-14T06:24:20.347Z,27.90
2023-05-14T06:26:48.770Z,26.15
2023-05-14T06:29:15.312Z,26.11
2023-05-14T06:31:42.237Z,26.36
2023-05-14T06:34:09.202Z,27.99
2023-05-14T06:36:35.861Z,28.52
2023-05-14T06:39:03.424Z,27.57
2023-05-14T06:41:29.882Z,27.84
2023-05-14T06:43:56.499Z,25.42
2023-05-14T06:46:23.238Z,26.37
2023-05-14T06:48:49.747Z,25.52
2023-05-14T06:51:16.291Z,24.61
2023-05-14T06:53:42.795Z,25.37
2023-05-14T06:56:09.315Z,26.09
2023-05-14T06:58:35.956Z,27.36
2023-05-14T07:01:02.541Z,27.60
2023-05-14T07:03:29.255Z,28.22
2023-05-14T07:05:55.881Z,26.92
2023-05-14T07:08:22.356Z,27.78
2023-05-14T07:10:49.100Z,28.03
2023-05-14T07:13:15.694Z,27.82
2023-05-14T07:15:42.214Z,27.60
2023-05-14T07:18:08.765Z,26.41
2023-05-14T07:20:35.421Z,26.45
2023-05-14T07:23:01.868Z,27.57
2023-05-14T07:25:30.637Z,27.47
2023-05-14T07:27:57.313Z,27.80
2023-05-14T07:30:24.254Z,27.72
2023-05-14T07:32:51.327Z,26.56
2023-05-14T07:35:18.023Z,26.51
2023-05-14T07:37:44.638Z,25.05
2023-05-14T07:40:11.313Z,24.81
2023-05-14T07:42:37.889Z,24.60
2023-05-14T07:45:05.463Z,24.77
2023-05-14T07:47:32.318Z,24.59
2023-05-14T07:49:59.033Z,23.83
2023-05-14T07:52:25.609Z,23.21
2023-05-14T07:54:52.510Z,22.75
2023-05-14T07:57:19.793Z,23.09
2023-05-14T07:59:47.550Z,23.73
2023-05-14T08:02:16.081Z,23.48
2023-05-14T08:04:42.908Z,23.77
2023-05-14T08:07:09.390Z,24.15
2023-05-14T08:09:35.923Z,23.83
2023-05-14T08:12:02.700Z,23.06
2023-05-14T08:14:29.244Z,23.50
2023-05-14T08:16:55.869Z,23.87
2023-05-14T08:19:23.093Z,23.55
2023-05-14T08:21:49.606Z,23.77
2023-05-14T08:24:16.126Z,23.13
2023-05-14T08:26:43.867Z,23.31
2023-05-14T08:29:11.530Z,23.36
2023-05-14T08:31:38.899Z,23.61
2023-05-14T08:34:05.614Z,23.19
2023-05-14T08:36:32.816Z,23.67
2023-05-14T08:38:59.356Z,23.70
2023-05-14T08:41:25.986Z,23.38
2023-05-14T08:44:05.528Z,23.73
2023-05-14T08:46:32.580Z,23.42
2023-05-14T08:49:22.970Z,23.49
2023-05-14T08:51:49.776Z,22.99
2023-05-14T08:54:22.518Z,23.18
2023-05-14T08:56:51.953Z,23.73
2023-05-14T08:59:19.204Z,23.65
2023-05-14T09:01:49.628Z,23.65
2023-05-14T09:04:20.060Z,23.48
2023-05-14T09:06:49.339Z,22.74
2023-05-14T09:09:16.349Z,22.92
2023-05-14T09:11:46.750Z,22.66
2023-05-14T09:14:13.276Z,22.47
2023-05-14T09:16:41.780Z,22.89
2023-05-14T09:19:08.898Z,23.24
2023-05-14T09:21:35.853Z,23.06
2023-05-14T09:24:02.542Z,22.71
2023-05-14T09:26:31.872Z,22.53
2023-05-14T09:29:05.048Z,22.38
2023-05-14T09:31:32.810Z,22.60
2023-05-14T09:33:59.888Z,22.72
2023-05-14T09:36:27.246Z,22.58
2023-05-14T09:38:56.937Z,22.54
2023-05-14T09:41:24.381Z,22.57
2023-05-14T09:43:51.642Z,22.46
2023-05-14T09:46:18.327Z,22.20
2023-05-14T09:48:46.062Z,22.41
2023-05-14T09:51:13.429Z,22.40
2023-05-14T09:53:41.318Z,22.39
2023-05-14T09:56:07.853Z,22.39
2023-05-14T09:58:34.316Z,22.71
2023-05-14T10:01:01.801Z,22.54
2023-05-14T10:03:30.203Z,22.36
2023-05-14T10:06:01.234Z,22.21
2023-05-14T10:08:31.084Z,22.23
2023-05-14T10:10:59.128Z,22.50
2023-05-14T10:13:33.735Z,22.43
2023-05-14T10:16:00.210Z,22.65
2023-05-14T10:18:31.184Z,22.90
2023-05-14T10:21:04.116Z,23.13
2023-05-14T10:23:30.959Z,22.46
2023-05-14T10:26:00.605Z,22.27
2023-05-14T10:28:27.808Z,21.98
2023-05-14T10:30:54.818Z,22.41
2023-05-14T10:33:21.476Z,22.45
2023-05-14T10:36:07.649Z,22.75
2023-05-14T10:38:35.832Z,22.44
2023-05-14T10:41:07.444Z,22.54
2023-05-14T10:43:38.460Z,23.04
2023-05-14T10:46:05.754Z,22.88
2023-05-14T10:48:33.027Z,22.74
2023-05-14T10:51:01.037Z,22.46
2023-05-14T10:53:37.850Z,22.45
2023-05-14T10:56:08.918Z,22.48
2023-05-14T10:58:39.981Z,22.35
2023-05-14T11:01:08.238Z,22.36
2023-05-14T11:03:46.172Z,22.23
2023-05-14T11:06:14.399Z,22.36
2023-05-14T11:08:41.490Z,22.37
2023-05-14T11:11:09.340Z,22.60
2023-05-14T11:13:35.974Z,22.58
2023-05-14T11:16:15.031Z,22.47
2023-05-14T11:18:53.606Z,22.42
2023-05-14T11:21:20.445Z,22.68
2023-05-14T11:23:47.017Z,22.62
2023-05-14T11:26:13.705Z,22.91
2023-05-14T11:28:40.590Z,23.17
2023-05-14T11:31:07.228Z,22.77
2023-05-14T11:33:33.937Z,22.79
2023-05-14T11:36:00.610Z,22.72
2023-05-14T11:38:27.103Z,22.56
2023-05-14T11:40:57.460Z,22.87
2023-05-14T11:43:24.815Z,23.04
2023-05-14T11:45:52.647Z,23.07
2023-05-14T11:48:24.001Z,22.84
2023-05-14T11:50:51.946Z,22.74
2023-05-14T11:53:29.194Z,23.07
2023-05-14T11:55:57.792Z,23.25
2023-05-14T11:58:24.685Z,23.10
2023-05-14T12:00:52.747Z,23.12
2023-05-14T12:03:26.777Z,23.10
2023-05-14T12:05:57.543Z,23.19
2023-05-14T12:08:28.849Z,23.10
2023-05-14T12:10:55.919Z,23.07
2023-05-14T12:13:26.714Z,23.10
2023-05-14T12:15:57.608Z,22.99
2023-05-14T12:18:29.284Z,22.93
2023-05-14T12:20:56.613Z,22.71
2023-05-14T12:23:32.608Z,23.13
2023-05-14T12:26:17.315Z,23.20
2023-05-14T12:28:47.805Z,23.41
2023-05-14T12:31:15.668Z,23.48
2023-05-14T12:33:42.300Z,23.57
2023-05-14T12:38:40.871Z,23.39
2023-05-14T12:41:07.414Z,23.54
2023-05-14T12:43:33.902Z,23.55
2023-05-14T12:46:00.515Z,23.60
2023-05-14T12:48:27.043Z,23.73
2023-05-14T12:50:53.624Z,23.55
2023-05-14T12:53:20.179Z,23.27
2023-05-14T12:55:46.699Z,23.20
2023-05-14T12:58:13.256Z,22.79
2023-05-14T13:00:39.809Z,22.89
2023-05-14T13:03:06.517Z,22.69
2023-05-14T13:05:33.345Z,22.52
2023-05-14T13:08:02.213Z,22.49
2023-05-14T13:10:28.752Z,22.35
2023-05-14T13:12:56.417Z,22.66
2023-05-14T13:15:23.712Z,22.90
2023-05-14T13:17:51.171Z,22.91
2023-05-14T13:20:18.418Z,23.02
2023-05-14T13:22:45.298Z,22.82
2023-05-14T13:25:11.753Z,22.88
2023-05-14T13:27:38.313Z,23.08
2023-05-14T13:30:05.293Z,22.77
2023-05-14T13:32:31.806Z,22.79
2023-05-14T13:34:58.463Z,22.94
2023-05-14T13:37:25.710Z,23.18
2023-05-14T13:39:52.269Z,23.26
2023-05-14T13:42:18.874Z,23.21
2023-05-14T13:44:45.538Z,23.19
2023-05-14T13:47:12.083Z,23.11
2023-05-14T13:49:38.736Z,23.35
2023-05-14T13:52:06.013Z,23.59
2023-05-14T13:54:32.647Z,23.70
2023-05-14T13:56:59.314Z,23.78
2023-05-14T13:59:26.075Z,23.49
2023-05-14T14:01:52.751Z,23.72
2023-05-14T14:04:19.953Z,23.74
2023-05-14T14:06:46.556Z,23.63
2023-05-14T14:09:13.815Z,23.22
2023-05-14T14:11:41.056Z,22.74
2023-05-14T14:14:07.654Z,22.66
2023-05-14T14:16:34.474Z,22.66
2023-05-14T14:19:01.058Z,23.01
2023-05-14T14:21:27.628Z,23.40
2023-05-14T14:23:54.306Z,23.54
2023-05-14T14:26:21.311Z,23.53
2023-05-14T14:28:47.942Z,23.63
2023-05-14T14:31:14.697Z,23.56
2023-05-14T14:33:41.839Z,23.47
2023-05-14T14:36:08.769Z,23.60
2023-05-14T14:38:35.356Z,23.33
2023-05-14T14:41:07.059Z,23.43
2023-05-14T14:43:41.137Z,23.18
2023-05-14T14:46:10.749Z,22.87
2023-05-14T14:48:37.752Z,22.79
2023-05-14T14:51:06.004Z,22.68
2023-05-14T14:53:33.082Z,22.52
2023-05-14T14:56:00.640Z,22.81
2023-05-14T14:58:28.025Z,22.83
2023-05-14T15:00:55.968Z,23.17
2023-05-14T15:03:23.640Z,23.13
2023-05-14T15:05:51.691Z,23.24
2023-05-14T15:08:18.418Z,23.17
2023-05-14T15:10:45.746Z,23.19
2023-05-14T15:13:12.774Z,23.16
2023-05-14T15:15:39.458Z,22.98
2023-05-14T15:18:06.090Z,23.02
2023-05-14T15:20:32.660Z,22.58
2023-05-14T15:22:59.194Z,22.63
2023-05-14T15:25:26.690Z,22.78
2023-05-14T15:27:53.365Z,22.86
2023-05-14T15:30:19.966Z,22.77
2023-05-14T15:32:46.821Z,22.88
2023-05-14T15:35:13.399Z,22.68
2023-05-14T15:37:42.247Z,22.55
2023-05-14T15:40:10.292Z,22.44
2023-05-14T15:42:42.408Z,22.47
2023-05-14T15:45:12.613Z,22.37
2023-05-14T15:47:40.041Z,22.07
2023-05-14T15:50:07.540Z,22.09
2023-05-14T15:52:35.013Z,22.21
2023-05-14T15:55:01.874Z,22.14
2023-05-14T15:57:28.339Z,22.03
2023-05-14T15:59:54.824Z,22.03
2023-05-14T16:02:21.320Z,21.87
2023-05-14T16:04:49.534Z,21.81
2023-05-14T16:07:16.284Z,21.87
2023-05-14T16:09:42.786Z,21.91
2023-05-14T16:12:09.328Z,21.94
2023-05-14T16:14:36.053Z,21.81
2023-05-14T16:17:02.758Z,22.02
2023-05-14T16:19:29.351Z,22.26
2023-05-14T16:21:55.889Z,22.42
2023-05-14T16:24:22.381Z,22.36
2023-05-14T16:26:49.049Z,22.46
2023-05-14T16:29:15.829Z,22.46
2023-05-14T16:31:42.336Z,22.31
2023-05-14T16:34:08.980Z,22.39
2023-05-14T16:36:35.673Z,22.34
2023-05-14T16:41:31.682Z,22.64
2023-05-14T16:43:58.130Z,22.57
2023-05-14T16:46:24.687Z,22.48
2023-05-14T16:48:51.270Z,22.46
2023-05-14T16:51:17.720Z,22.56
2023-05-14T16:53:44.308Z,22.55
2023-05-14T16:56:11.061Z,22.17
2023-05-14T16:58:37.656Z,21.94
2023-05-14T17:01:04.195Z,21.78
2023-05-14T17:03:30.757Z,21.59
2023-05-14T17:05:57.255Z,21.56
2023-05-14T17:08:23.762Z,21.42
2023-05-14T17:10:50.295Z,21.46
2023-05-14T17:13:16.775Z,21.32
2023-05-14T17:15:43.325Z,21.37
2023-05-14T17:18:11.893Z,21.24
2023-05-14T17:20:38.569Z,21.18
2023-05-14T17:23:05.052Z,21.11
2023-05-14T17:25:33.190Z,21.02
2023-05-14T17:28:00.136Z,20.94
2023-05-14T17:30:27.181Z,20.85
2023-05-14T17:32:53.794Z,20.84
2023-05-14T17:35:20.378Z,20.87
2023-05-14T17:37:47.161Z,20.90
2023-05-14T17:40:13.841Z,20.83
2023-05-14T17:42:40.292Z,20.67
2023-05-14T17:45:07.511Z,20.72
2023-05-14T17:47:34.242Z,20.66
2023-05-14T17:50:00.875Z,20.54
2023-05-14T17:52:27.361Z,20.43
2023-05-14T17:54:53.912Z,20.40
2023-05-14T17:57:21.188Z,20.27
2023-05-14T17:59:47.724Z,20.24
2023-05-14T18:02:14.302Z,20.16
2023-05-14T18:04:40.855Z,20.11
2023-05-14T18:07:07.590Z,20.07
2023-05-14T18:09:34.335Z,20.12
2023-05-14T18:12:00.962Z,20.01
2023-05-14T18:14:27.427Z,20.00
2023-05-14T18:16:55.874Z,19.92
2023-05-14T18:19:22.627Z,19.80
2023-05-14T18:21:49.391Z,19.75
2023-05-14T18:24:16.198Z,19.75
2023-05-14T18:26:42.792Z,19.75
2023-05-14T18:29:09.281Z,19.65
2023-05-14T18:31:35.836Z,19.59
2023-05-14T18:34:02.374Z,19.55
2023-05-14T18:36:29.041Z,19.59
2023-05-14T18:38:55.495Z,19.53
2023-05-14T18:41:22.018Z,19.47
2023-05-14T18:43:48.528Z,19.43
2023-05-14T18:46:15.081Z,19.40
2023-05-14T18:48:41.681Z,19.31
2023-05-14T18:51:08.222Z,19.29
2023-05-14T18:53:34.800Z,19.23
2023-05-14T18:56:01.336Z,19.22
2023-05-14T18:58:28.225Z,19.28
2023-05-14T19:00:57.730Z,19.19
2023-05-14T19:03:24.585Z,19.17
2023-05-14T19:05:53.130Z,19.17
2023-05-14T19:08:19.689Z,19.14
2023-05-14T19:10:46.745Z,19.10
2023-05-14T19:13:13.287Z,19.06
2023-05-14T19:15:39.747Z,18.96
2023-05-14T19:18:06.461Z,19.00
2023-05-14T19:20:33.027Z,18.96
2023-05-14T19:22:59.563Z,18.89
2023-05-14T19:25:26.179Z,18.80
2023-05-14T19:27:53.700Z,18.81
2023-05-14T19:30:21.266Z,18.75
2023-05-14T19:32:47.828Z,18.65
2023-05-14T19:35:14.561Z,18.59
2023-05-14T19:37:41.229Z,18.62
2023-05-14T19:40:08.531Z,18.63
2023-05-14T19:42:35.091Z,18.45
2023-05-14T19:45:01.658Z,18.41
2023-05-14T19:47:28.818Z,18.23
2023-05-14T19:49:58.734Z,18.28
2023-05-14T19:52:28.480Z,18.15
2023-05-14T19:54:58.140Z,18.11
2023-05-14T19:57:28.117Z,17.98
2023-05-14T19:59:55.659Z,17.98
2023-05-14T20:02:24.988Z,18.00
2023-05-14T20:04:55.729Z,18.01
2023-05-14T20:07:22.590Z,17.84
2023-05-14T20:09:49.116Z,17.70
2023-05-14T20:12:16.737Z,17.64
2023-05-14T20:14:43.511Z,17.59
2023-05-14T20:17:10.135Z,17.53
2023-05-14T20:19:36.774Z,17.47
2023-05-14T20:22:03.336Z,17.52
2023-05-14T20:24:29.854Z,17.53
2023-05-14T20:26:56.769Z,17.52
2023-05-14T20:29:23.233Z,17.48
2023-05-14T20:31:49.708Z,17.41
2023-05-14T20:34:16.183Z,17.40
2023-05-14T20:36:42.630Z,17.42
2023-05-14T20:39:10.847Z,17.38
2023-05-14T20:41:37.850Z,17.34
2023-05-14T20:44:04.530Z,17.25
2023-05-14T20:46:31.098Z,17.28
2023-05-14T20:48:57.661Z,17.25
2023-05-14T20:51:24.439Z,17.42
2023-05-14T20:53:50.903Z,17.53
2023-05-14T20:56:17.502Z,17.42
2023-05-14T20:58:44.207Z,17.38
2023-05-14T21:01:10.707Z,17.41
2023-05-14T21:03:37.335Z,17.36
2023-05-14T21:06:03.945Z,17.40
2023-05-14T21:08:32.854Z,17.41
2023-05-14T21:10:59.412Z,17.39
2023-05-14T21:13:25.925Z,17.35
2023-05-14T21:15:52.553Z,17.35
2023-05-14T21:18:19.047Z,17.33
2023-05-14T21:20:45.543Z,17.27
2023-05-14T21:23:12.690Z,17.37
2023-05-14T21:25:39.212Z,17.37
2023-05-14T21:28:05.806Z,17.30
2023-05-14T21:30:32.292Z,17.32
2023-05-14T21:32:58.791Z,17.24
2023-05-14T21:35:25.635Z,17.24
2023-05-14T21:37:52.432Z,17.18
2023-05-14T21:40:18.957Z,17.17
2023-05-14T21:42:45.522Z,17.20
2023-05-14T21:45:12.006Z,17.14
2023-05-14T21:47:38.839Z,17.06
2023-05-14T21:50:05.963Z,17.03
2023-05-14T21:52:32.483Z,16.97
2023-05-14T21:54:58.948Z,16.92
2023-05-14T21:57:28.179Z,16.97
2023-05-14T21:59:55.163Z,16.98
2023-05-14T22:02:21.674Z,17.04
2023-05-14T22:04:48.248Z,17.03
2023-05-14T22:07:14.751Z,17.00
2023-05-14T22:09:41.469Z,16.88
2023-05-14T22:12:08.070Z,16.98
2023-05-14T22:14:34.537Z,16.90
2023-05-14T22:17:01.036Z,16.89
2023-05-14T22:19:27.914Z,16.84
2023-05-14T22:21:54.478Z,16.80
2023-05-14T22:24:20.998Z,16.88
2023-05-14T22:26:47.523Z,16.87
2023-05-14T22:29:13.978Z,16.86
2023-05-14T22:31:40.522Z,16.83
2023-05-14T22:34:07.098Z,16.80
2023-05-14T22:36:33.598Z,16.81
2023-05-14T22:39:00.070Z,16.80
2023-05-14T22:41:26.757Z,16.87
2023-05-14T22:43:53.218Z,16.91
2023-05-14T22:46:21.089Z,17.08
2023-05-14T22:48:49.170Z,17.22
2023-05-14T22:51:16.338Z,17.22
2023-05-14T22:53:42.764Z,17.25
2023-05-14T22:56:09.275Z,17.26
2023-05-14T22:58:35.892Z,17.21
2023-05-14T23:01:03.444Z,17.23
2023-05-14T23:03:30.104Z,17.32
2023-05-14T23:05:56.594Z,17.32
2023-05-14T23:08:23.057Z,17.11
2023-05-14T23:10:49.578Z,17.06
2023-05-14T23:13:16.052Z,17.17
2023-05-14T23:15:43.891Z,17.10
2023-05-14T23:18:10.545Z,17.01
2023-05-14T23:20:37.091Z,16.94
2023-05-14T23:23:03.558Z,16.93
2023-05-14T23:25:30.002Z,17.05
2023-05-14T23:27:56.464Z,17.11
2023-05-14T23:30:22.914Z,17.10
2023-05-14T23:32:49.416Z,17.08
2023-05-14T23:35:16.149Z,17.06
2023-05-14T23:37:47.159Z,17.09
2023-05-14T23:40:14.171Z,17.06
2023-05-14T23:42:40.655Z,17.04
2023-05-14T23:45:07.695Z,17.08
2023-05-14T23:47:34.212Z,16.99
2023-05-14T23:50:00.717Z,16.98
2023-05-14T23:52:27.211Z,16.97
2023-05-14T23:54:53.766Z,16.95
2023-05-14T23:57:20.242Z,16.96
2023-05-14T23:59:46.717Z,16.91
